Terminal Aerodrome Forecast
Issued by NWS

Home | Current Version | Previous Version | Text Only | Print | Product List | Glossary On
Versions: 1 2 3 4 5 6 7 8 9 10 11 12 13 14 15 16 17 18
000
FTUS43 KJKL 302300 RRA
TAFSJS
TAF
KSJS 302343Z 0100/0124 23003KT P6SM SKC
     FM010900 00000KT 2SM BR SKC
     FM011100 00000KT 1/4SM FG VV002
     FM011300 00000KT 3SM BR BKN002
     FM011400 00000KT P6SM SKC=

USA.gov is the U.S. government's official web portal to all federal, state and local government web resources and services.